No.10 Hasshomaru — JD2992 — position and weather

sailwx.info

Track history (hours):
 
Tides and Currents Weather Stations Pressure Air Temp Water Temp Dewpoint Dewpoint Depression Visibility Wind Speed Wind Dir Waves Ship Positions

No.10 Hasshomaru

Last reported at 2015-Jul-06 03:26 UTC. Time now 2015-Jul-06 07:11 UTC.
Position N 34°32' E 135°25'.

Length 105 m; draft 6.3 m.

Type: Tanker. MMSI: 431001112.

Date/timePositionNaut miles runAvg speedWind from/ knotsBaromVisibWave heightAir tempDewpointWater temp
2015-Jul-06 03:26N 34°32' E 135°25'4 4.3
2015-Jul-06 02:33N 34°32' E 135°20'0 0.1
2015-Jul-06 01:21N 34°31' E 135°20'0 0.1
2015-Jul-06 00:27N 34°31' E 135°20'0 0.0
2015-Jul-05 23:33N 34°31' E 135°20'0 0.0
2015-Jul-05 22:15N 34°31' E 135°20'0 0.0
2015-Jul-05 21:27N 34°31' E 135°20'0 0.0
2015-Jul-05 20:33N 34°31' E 135°20'0 0.0
2015-Jul-05 17:27N 34°31' E 135°20'0 0.2
2015-Jul-05 16:33N 34°31' E 135°20'1313.0
2015-Jul-05 15:33N 34°35' E 135°05'  
2015-Jun-30 03:22N 34°33' E 134°45'1113.2
2015-Jun-30 02:32N 34°37' E 134°58'9 9.0
2015-Jun-30 01:33N 34°39' E 135°08'0 0.0
2015-Jun-30 00:28N 34°39' E 135°08'0 0.0
2015-Jun-29 23:28N 34°39' E 135°08'0 0.0
2015-Jun-29 22:30N 34°39' E 135°08'1 0.9
2015-Jun-29 21:20N 34°38' E 135°08'0 0.1
2015-Jun-29 20:32N 34°38' E 135°08'0 0.0
2015-Jun-29 19:32N 34°38' E 135°08'0 0.0
2015-Jun-29 18:32N 34°38' E 135°08'0 0.0
2015-Jun-29 17:32N 34°38' E 135°08'0 0.1
2015-Jun-29 16:32N 34°38' E 135°08'0 0.1
2015-Jun-29 15:32N 34°38' E 135°08'0 0.0
2015-Jun-29 14:32N 34°38' E 135°08'0 0.1
2015-Jun-29 13:32N 34°38' E 135°08'0 0.0
2015-Jun-29 12:26N 34°38' E 135°08'3 3.4
2015-Jun-29 11:33N 34°35' E 135°06'  
Track history (hours):
 
Tides and Currents Weather Stations Pressure Air Temp Water Temp Dewpoint Dewpoint Depression Visibility Wind Speed Wind Dir Waves Ship Positions

No.10 Hasshomaru

Last reported at 2015-Jul-06 03:26 UTC. Time now 2015-Jul-06 07:11 UTC.
Position N 34°32' E 135°25'.

Length 105 m; draft 6.3 m.

Type: Tanker. MMSI: 431001112.

Date/timePositionNaut miles runAvg speedWind from/ knotsBaromVisibWave heightAir tempDewpointWater temp
2015-Jul-06 03:26N 34°32' E 135°25'4 4.3
2015-Jul-06 02:33N 34°32' E 135°20'0 0.1
2015-Jul-06 01:21N 34°31' E 135°20'0 0.1
2015-Jul-06 00:27N 34°31' E 135°20'0 0.0
2015-Jul-05 23:33N 34°31' E 135°20'0 0.0
2015-Jul-05 22:15N 34°31' E 135°20'0 0.0
2015-Jul-05 21:27N 34°31' E 135°20'0 0.0
2015-Jul-05 20:33N 34°31' E 135°20'0 0.0
2015-Jul-05 17:27N 34°31' E 135°20'0 0.2
2015-Jul-05 16:33N 34°31' E 135°20'1313.0
2015-Jul-05 15:33N 34°35' E 135°05'  
2015-Jun-30 03:22N 34°33' E 134°45'1113.2
2015-Jun-30 02:32N 34°37' E 134°58'9 9.0
2015-Jun-30 01:33N 34°39' E 135°08'0 0.0
2015-Jun-30 00:28N 34°39' E 135°08'0 0.0
2015-Jun-29 23:28N 34°39' E 135°08'0 0.0
2015-Jun-29 22:30N 34°39' E 135°08'1 0.9
2015-Jun-29 21:20N 34°38' E 135°08'0 0.1
2015-Jun-29 20:32N 34°38' E 135°08'0 0.0
2015-Jun-29 19:32N 34°38' E 135°08'0 0.0
2015-Jun-29 18:32N 34°38' E 135°08'0 0.0
2015-Jun-29 17:32N 34°38' E 135°08'0 0.1
2015-Jun-29 16:32N 34°38' E 135°08'0 0.1
2015-Jun-29 15:32N 34°38' E 135°08'0 0.0
2015-Jun-29 14:32N 34°38' E 135°08'0 0.1
2015-Jun-29 13:32N 34°38' E 135°08'0 0.0
2015-Jun-29 12:26N 34°38' E 135°08'3 3.4
2015-Jun-29 11:33N 34°35' E 135°06'  

Dump ship's entire track history